createdAt,value
2022-12-18T00:03:16.278Z,79.18
2022-12-18T00:18:20.714Z,79.17
2022-12-18T00:33:23.557Z,78.48
2022-12-18T00:48:26.234Z,78.58
2022-12-18T01:03:28.592Z,78.94
2022-12-18T01:18:30.972Z,79.02
2022-12-18T01:33:33.560Z,78.46
2022-12-18T01:48:36.993Z,78.86
2022-12-18T02:03:54.038Z,79.07
2022-12-18T02:19:12.927Z,79.01
2022-12-18T02:34:18.731Z,78.70
2022-12-18T02:49:59.923Z,78.73
2022-12-18T03:05:25.606Z,79.10
2022-12-18T03:20:31.991Z,78.76
2022-12-18T03:35:42.098Z,78.03
2022-12-18T03:50:56.064Z,77.79
2022-12-18T04:06:01.446Z,78.58
2022-12-18T04:21:04.146Z,78.23
2022-12-18T04:36:07.360Z,78.07
2022-12-18T04:51:09.730Z,77.92
2022-12-18T05:06:12.616Z,78.46
2022-12-18T05:21:15.384Z,78.47
2022-12-18T05:36:17.819Z,77.81
2022-12-18T05:51:22.778Z,78.20
2022-12-18T06:06:28.958Z,78.75
2022-12-18T06:21:33.489Z,78.64
2022-12-18T06:36:36.519Z,78.29
2022-12-18T06:51:54.377Z,77.95
2022-12-18T07:06:58.086Z,78.70
2022-12-18T07:22:01.476Z,79.15
2022-12-18T07:37:04.038Z,79.36
2022-12-18T07:52:25.978Z,79.12
2022-12-18T08:07:29.365Z,78.71
2022-12-18T08:22:38.286Z,78.75
2022-12-18T08:37:41.116Z,79.85
2022-12-18T08:52:45.390Z,79.79
2022-12-18T09:07:48.286Z,79.30
2022-12-18T09:22:50.877Z,79.34
2022-12-18T09:37:55.019Z,80.14
2022-12-18T09:53:07.326Z,80.79
2022-12-18T10:08:20.161Z,81.04
2022-12-18T10:24:27.673Z,80.88
2022-12-18T10:39:30.707Z,81.08
2022-12-18T10:54:35.611Z,81.09
2022-12-18T11:10:06.296Z,81.22
2022-12-18T11:25:33.540Z,81.19
2022-12-18T11:40:42.486Z,81.24
2022-12-18T11:55:57.188Z,80.96
2022-12-18T12:11:19.411Z,81.11
2022-12-18T12:26:39.912Z,80.72
2022-12-18T12:42:05.974Z,80.80
2022-12-18T12:57:37.689Z,80.29
2022-12-18T13:13:07.153Z,80.48
2022-12-18T13:28:15.640Z,80.11
2022-12-18T13:43:21.770Z,79.79
2022-12-18T13:58:24.471Z,80.32
2022-12-18T14:13:36.408Z,79.90
2022-12-18T14:28:54.558Z,79.55
2022-12-18T14:44:07.396Z,79.78
2022-12-18T14:59:27.005Z,79.48
2022-12-18T15:14:37.984Z,79.75
2022-12-18T15:30:21.000Z,79.63
2022-12-18T15:45:38.346Z,79.89
2022-12-18T16:00:41.345Z,79.70
2022-12-18T16:15:44.403Z,79.65
2022-12-18T16:30:47.903Z,80.27
2022-12-18T16:45:50.793Z,80.27
2022-12-18T17:01:11.588Z,80.46
2022-12-18T17:16:14.551Z,80.64
2022-12-18T17:31:23.428Z,80.80
2022-12-18T17:46:30.518Z,80.55
2022-12-18T18:01:36.384Z,80.86
2022-12-18T18:16:55.993Z,81.13
2022-12-18T18:32:00.625Z,80.89
2022-12-18T18:47:04.185Z,80.81
2022-12-18T19:02:16.991Z,80.85
2022-12-18T19:17:23.693Z,80.93
2022-12-18T19:32:31.197Z,80.85
2022-12-18T19:47:34.057Z,80.56
2022-12-18T20:02:37.060Z,80.38
2022-12-18T20:17:54.425Z,80.14
2022-12-18T20:32:58.143Z,80.35
2022-12-18T20:48:01.945Z,80.31
2022-12-18T21:03:05.243Z,80.60
2022-12-18T21:18:08.447Z,80.84
2022-12-18T21:33:11.600Z,80.68
2022-12-18T21:48:14.556Z,80.73
2022-12-18T22:03:19.402Z,80.58
2022-12-18T22:18:22.447Z,80.66
2022-12-18T22:33:25.291Z,80.39
2022-12-18T22:48:27.996Z,80.60
2022-12-18T23:03:35.363Z,80.50
2022-12-18T23:18:38.355Z,80.26
2022-12-18T23:33:58.830Z,80.06
2022-12-18T23:49:05.861Z,80.05
